UKV1254 EGNX-EDDK
Flight info
| Callsign | UKV1254 |
|---|---|
| Flight time | 1h 4m |
| Altitude | 37000 |
| Route | SAPCO Y53 DTY DCT SILVA UM605 BENSU Q70 BIG UL9 KONAN UL607 SPI T857 DENOV T861 ERUKI T856 DEPOK |
| Aircraft | B738/M-SDE2E3FGHIRWXY/LB1 |
Departure
| Time | 2026-04-26 08:25 |
|---|---|
| Airport | East Midlands Airport (EGNX) |
Arrival
| Time | 2026-04-26 09:30 |
|---|---|
| Airport | Cologne Bonn Airport (EDDK) |
| Time | Latitude | Longitude | Altitude | Speed | Heading |
|---|---|---|---|---|---|
| 2026-04-26 07:50 | 52.82808 | -1.33495 | 300 ft | 0 kts | 88° |
| 2026-04-26 08:14 | 52.82808 | -1.33512 | 302 ft | 3 kts | 88° |
| 2026-04-26 08:14 | 52.82808 | -1.33543 | 300 ft | 3 kts | 88° |
| 2026-04-26 08:14 | 52.82807 | -1.33574 | 299 ft | 3 kts | 88° |
| 2026-04-26 08:15 | 52.82801 | -1.33602 | 303 ft | 3 kts | 28° |
| 2026-04-26 08:15 | 52.82793 | -1.33608 | 300 ft | 0 kts | 355° |
| 2026-04-26 08:19 | 52.82798 | -1.33609 | 301 ft | 2 kts | 355° |
| 2026-04-26 08:20 | 52.82826 | -1.33610 | 301 ft | 7 kts | 360° |
| 2026-04-26 08:20 | 52.82887 | -1.33614 | 304 ft | 9 kts | 346° |
| 2026-04-26 08:20 | 52.82912 | -1.33670 | 303 ft | 6 kts | 282° |
| 2026-04-26 08:20 | 52.82914 | -1.33742 | 304 ft | 6 kts | 270° |
| 2026-04-26 08:21 | 52.82913 | -1.33816 | 304 ft | 7 kts | 268° |
| 2026-04-26 08:21 | 52.82911 | -1.33872 | 304 ft | 8 kts | 268° |
| 2026-04-26 08:21 | 52.82909 | -1.34024 | 301 ft | 13 kts | 269° |
| 2026-04-26 08:21 | 52.82907 | -1.34134 | 302 ft | 15 kts | 268° |
| 2026-04-26 08:22 | 52.82907 | -1.34309 | 305 ft | 15 kts | 272° |
| 2026-04-26 08:22 | 52.82906 | -1.34485 | 306 ft | 16 kts | 268° |
| 2026-04-26 08:22 | 52.82903 | -1.34682 | 303 ft | 18 kts | 268° |
| 2026-04-26 08:22 | 52.82899 | -1.34841 | 305 ft | 8 kts | 268° |
| 2026-04-26 08:23 | 52.82920 | -1.34926 | 305 ft | 9 kts | 324° |
| 2026-04-26 08:23 | 52.82984 | -1.34936 | 304 ft | 10 kts | 359° |
| 2026-04-26 08:23 | 52.83050 | -1.34935 | 304 ft | 7 kts | 11° |
| 2026-04-26 08:23 | 52.83064 | -1.34864 | 304 ft | 8 kts | 90° |
| 2026-04-26 08:24 | 52.83064 | -1.34847 | 302 ft | 0 kts | 90° |
| 2026-04-26 08:24 | 52.83064 | -1.34758 | 302 ft | 24 kts | 89° |
| 2026-04-26 08:24 | 52.83075 | -1.34144 | 304 ft | 83 kts | 88° |
| 2026-04-26 08:24 | 52.83103 | -1.32876 | 301 ft | 136 kts | 88° |
| 2026-04-26 08:25 | 52.83118 | -1.31107 | 521 ft | 160 kts | 91° |
| 2026-04-26 08:25 | 52.83121 | -1.29279 | 1262 ft | 161 kts | 93° |
| 2026-04-26 08:25 | 52.83104 | -1.27331 | 1624 ft | 177 kts | 94° |
| 2026-04-26 08:25 | 52.82981 | -1.25249 | 2131 ft | 188 kts | 107° |
| 2026-04-26 08:26 | 52.82426 | -1.23213 | 2602 ft | 205 kts | 127° |
| 2026-04-26 08:26 | 52.81461 | -1.21310 | 3125 ft | 226 kts | 136° |
| 2026-04-26 08:26 | 52.80347 | -1.19361 | 3904 ft | 242 kts | 134° |
| 2026-04-26 08:26 | 52.79220 | -1.17146 | 4664 ft | 258 kts | 131° |
| 2026-04-26 08:27 | 52.77803 | -1.15320 | 5607 ft | 262 kts | 158° |
| 2026-04-26 08:27 | 52.76013 | -1.14931 | 6557 ft | 266 kts | 191° |
| 2026-04-26 08:27 | 52.74324 | -1.16177 | 7451 ft | 270 kts | 214° |
| 2026-04-26 08:27 | 52.72813 | -1.18068 | 8297 ft | 274 kts | 221° |
| 2026-04-26 08:28 | 52.71391 | -1.20135 | 9252 ft | 278 kts | 222° |
| 2026-04-26 08:28 | 52.69924 | -1.22238 | 10223 ft | 281 kts | 221° |
| 2026-04-26 08:28 | 52.68370 | -1.24330 | 10833 ft | 297 kts | 219° |
| 2026-04-26 08:28 | 52.66694 | -1.26486 | 11337 ft | 314 kts | 218° |
| 2026-04-26 08:29 | 52.64915 | -1.28748 | 11870 ft | 330 kts | 218° |
| 2026-04-26 08:29 | 52.63087 | -1.31093 | 12692 ft | 336 kts | 219° |
| 2026-04-26 08:29 | 52.61238 | -1.33492 | 13550 ft | 341 kts | 219° |
| 2026-04-26 08:29 | 52.59234 | -1.35639 | 14375 ft | 347 kts | 205° |
| 2026-04-26 08:30 | 52.56880 | -1.36590 | 15199 ft | 354 kts | 184° |
| 2026-04-26 08:30 | 52.54433 | -1.36020 | 16025 ft | 361 kts | 163° |
| 2026-04-26 08:30 | 52.52051 | -1.34580 | 16839 ft | 367 kts | 160° |
| 2026-04-26 08:30 | 52.49689 | -1.32912 | 17655 ft | 372 kts | 158° |
| 2026-04-26 08:31 | 52.47316 | -1.31161 | 18476 ft | 376 kts | 158° |
| 2026-04-26 08:31 | 52.44927 | -1.29462 | 19170 ft | 381 kts | 159° |
| 2026-04-26 08:31 | 52.42462 | -1.27797 | 19841 ft | 385 kts | 160° |
| 2026-04-26 08:31 | 52.39953 | -1.26145 | 20547 ft | 390 kts | 161° |
| 2026-04-26 08:32 | 52.37421 | -1.24467 | 21199 ft | 396 kts | 160° |
| 2026-04-26 08:32 | 52.34864 | -1.22743 | 21842 ft | 401 kts | 160° |
| 2026-04-26 08:32 | 52.32270 | -1.20978 | 22472 ft | 406 kts | 160° |
| 2026-04-26 08:32 | 52.29644 | -1.19196 | 23099 ft | 410 kts | 160° |
| 2026-04-26 08:33 | 52.26988 | -1.17407 | 23692 ft | 415 kts | 160° |
| 2026-04-26 08:33 | 52.24301 | -1.15607 | 24227 ft | 420 kts | 161° |
| 2026-04-26 08:33 | 52.21587 | -1.13793 | 24735 ft | 423 kts | 161° |
| 2026-04-26 08:33 | 52.18845 | -1.11982 | 25237 ft | 426 kts | 163° |
| 2026-04-26 08:34 | 52.15987 | -1.10740 | 25737 ft | 425 kts | 171° |
| 2026-04-26 08:34 | 52.13083 | -1.09743 | 26211 ft | 428 kts | 172° |
| 2026-04-26 08:34 | 52.10147 | -1.08782 | 26677 ft | 431 kts | 172° |
| 2026-04-26 08:34 | 52.07194 | -1.07841 | 27142 ft | 434 kts | 172° |
| 2026-04-26 08:35 | 52.04222 | -1.06890 | 27586 ft | 437 kts | 172° |
| 2026-04-26 08:35 | 52.01224 | -1.05915 | 27992 ft | 440 kts | 172° |
| 2026-04-26 08:35 | 51.98219 | -1.04927 | 28421 ft | 443 kts | 172° |
| 2026-04-26 08:35 | 51.95192 | -1.03933 | 28825 ft | 445 kts | 172° |
| 2026-04-26 08:36 | 51.92145 | -1.02941 | 29224 ft | 448 kts | 172° |
| 2026-04-26 08:36 | 51.89081 | -1.01951 | 29609 ft | 450 kts | 172° |
| 2026-04-26 08:36 | 51.86000 | -1.00957 | 29982 ft | 453 kts | 172° |
| 2026-04-26 08:36 | 51.82902 | -0.99956 | 30338 ft | 455 kts | 172° |
| 2026-04-26 08:37 | 51.79777 | -0.98945 | 30629 ft | 457 kts | 172° |
| 2026-04-26 08:37 | 51.76647 | -0.97934 | 30920 ft | 460 kts | 172° |
| 2026-04-26 08:37 | 51.73504 | -0.96920 | 31283 ft | 460 kts | 172° |
| 2026-04-26 08:37 | 51.70362 | -0.95909 | 31601 ft | 461 kts | 172° |
| 2026-04-26 08:38 | 51.67251 | -0.94911 | 31966 ft | 461 kts | 172° |
| 2026-04-26 08:38 | 51.64113 | -0.93793 | 32330 ft | 464 kts | 166° |
| 2026-04-26 08:38 | 51.61120 | -0.91773 | 32764 ft | 468 kts | 154° |
| 2026-04-26 08:38 | 51.58462 | -0.88720 | 33150 ft | 473 kts | 140° |
| 2026-04-26 08:39 | 51.56309 | -0.84690 | 33535 ft | 476 kts | 124° |
| 2026-04-26 08:39 | 51.54799 | -0.79960 | 33938 ft | 476 kts | 114° |
| 2026-04-26 08:39 | 51.53523 | -0.75044 | 34291 ft | 477 kts | 113° |
| 2026-04-26 08:39 | 51.52289 | -0.70102 | 34612 ft | 477 kts | 112° |
| 2026-04-26 08:40 | 51.51057 | -0.65166 | 34936 ft | 476 kts | 113° |
| 2026-04-26 08:40 | 51.49801 | -0.60254 | 35265 ft | 475 kts | 113° |
| 2026-04-26 08:40 | 51.48527 | -0.55376 | 35597 ft | 474 kts | 114° |
| 2026-04-26 08:40 | 51.47244 | -0.50493 | 35919 ft | 474 kts | 114° |
| 2026-04-26 08:41 | 51.45973 | -0.45623 | 36246 ft | 473 kts | 113° |
| 2026-04-26 08:41 | 51.44710 | -0.40749 | 36567 ft | 472 kts | 113° |
| 2026-04-26 08:41 | 51.43467 | -0.35952 | 36879 ft | 471 kts | 113° |
| 2026-04-26 08:41 | 51.42189 | -0.31047 | 37196 ft | 471 kts | 113° |
| 2026-04-26 08:42 | 51.40934 | -0.26260 | 37318 ft | 474 kts | 114° |
| 2026-04-26 08:42 | 51.39648 | -0.21376 | 37341 ft | 477 kts | 114° |
| 2026-04-26 08:42 | 51.37087 | -0.11650 | 37334 ft | 470 kts | 114° |
| 2026-04-26 08:43 | 51.34541 | -0.02022 | 37343 ft | 470 kts | 114° |
| 2026-04-26 08:43 | 51.32553 | 0.07905 | 37315 ft | 470 kts | 101° |
| 2026-04-26 08:44 | 51.31278 | 0.18166 | 37289 ft | 470 kts | 100° |
| 2026-04-26 08:44 | 51.30045 | 0.28419 | 37275 ft | 469 kts | 101° |
| 2026-04-26 08:45 | 51.28776 | 0.38658 | 37261 ft | 470 kts | 101° |
| 2026-04-26 08:45 | 51.27497 | 0.48897 | 37265 ft | 470 kts | 101° |
| 2026-04-26 08:46 | 51.26217 | 0.59137 | 37271 ft | 470 kts | 101° |
| 2026-04-26 08:46 | 51.24924 | 0.69317 | 37291 ft | 470 kts | 101° |
| 2026-04-26 08:47 | 51.23614 | 0.79548 | 37310 ft | 470 kts | 101° |
| 2026-04-26 08:47 | 51.22304 | 0.89780 | 37332 ft | 470 kts | 101° |
| 2026-04-26 08:48 | 51.20981 | 0.99989 | 37369 ft | 470 kts | 101° |
| 2026-04-26 08:48 | 51.19652 | 1.10192 | 37363 ft | 469 kts | 101° |
| 2026-04-26 08:49 | 51.18316 | 1.20380 | 37363 ft | 469 kts | 101° |
| 2026-04-26 08:49 | 51.16967 | 1.30558 | 37360 ft | 470 kts | 101° |
| 2026-04-26 08:50 | 51.16027 | 1.40812 | 37362 ft | 468 kts | 93° |
| 2026-04-26 08:50 | 51.15523 | 1.51132 | 37353 ft | 467 kts | 92° |
| 2026-04-26 08:51 | 51.14783 | 1.66589 | 37358 ft | 466 kts | 93° |
| 2026-04-26 08:52 | 51.14261 | 1.76892 | 37354 ft | 467 kts | 93° |
| 2026-04-26 08:52 | 51.13737 | 1.87201 | 37348 ft | 466 kts | 93° |
| 2026-04-26 08:53 | 51.13203 | 1.97499 | 37358 ft | 466 kts | 93° |
| 2026-04-26 08:53 | 51.12665 | 2.07715 | 37355 ft | 465 kts | 93° |
| 2026-04-26 08:54 | 51.12116 | 2.17977 | 37356 ft | 465 kts | 93° |
| 2026-04-26 08:54 | 51.11556 | 2.28251 | 37360 ft | 466 kts | 93° |
| 2026-04-26 08:55 | 51.10987 | 2.38522 | 37364 ft | 465 kts | 93° |
| 2026-04-26 08:55 | 51.10410 | 2.48777 | 37358 ft | 465 kts | 93° |
| 2026-04-26 08:56 | 51.09821 | 2.59036 | 37361 ft | 465 kts | 94° |
| 2026-04-26 08:56 | 51.08738 | 2.69194 | 37372 ft | 468 kts | 104° |
| 2026-04-26 08:57 | 51.06972 | 2.79109 | 37361 ft | 469 kts | 105° |
| 2026-04-26 08:57 | 51.05136 | 2.89044 | 37365 ft | 468 kts | 105° |
| 2026-04-26 08:58 | 51.03326 | 2.98978 | 37362 ft | 467 kts | 105° |
| 2026-04-26 08:58 | 51.01513 | 3.08888 | 37359 ft | 467 kts | 105° |
| 2026-04-26 08:59 | 50.99677 | 3.18795 | 37358 ft | 467 kts | 105° |
| 2026-04-26 08:59 | 50.97840 | 3.28688 | 37353 ft | 467 kts | 105° |
| 2026-04-26 09:00 | 50.95994 | 3.38588 | 37353 ft | 467 kts | 106° |
| 2026-04-26 09:00 | 50.94139 | 3.48465 | 37352 ft | 467 kts | 106° |
| 2026-04-26 09:01 | 50.92586 | 3.56682 | 37350 ft | 467 kts | 106° |
| 2026-04-26 09:01 | 50.90714 | 3.66559 | 37346 ft | 467 kts | 106° |
| 2026-04-26 09:02 | 50.88819 | 3.76403 | 37360 ft | 467 kts | 107° |
| 2026-04-26 09:02 | 50.86909 | 3.86239 | 37352 ft | 466 kts | 107° |
| 2026-04-26 09:03 | 50.85018 | 3.95978 | 37341 ft | 465 kts | 107° |
| 2026-04-26 09:03 | 50.83107 | 4.05757 | 37340 ft | 465 kts | 107° |
| 2026-04-26 09:04 | 50.81184 | 4.15535 | 37337 ft | 466 kts | 107° |
| 2026-04-26 09:04 | 50.79254 | 4.25309 | 37330 ft | 465 kts | 107° |
| 2026-04-26 09:05 | 50.77316 | 4.35074 | 37337 ft | 466 kts | 107° |
| 2026-04-26 09:05 | 50.75381 | 4.44771 | 37337 ft | 466 kts | 107° |
| 2026-04-26 09:06 | 50.73425 | 4.54517 | 37334 ft | 465 kts | 107° |
| 2026-04-26 09:06 | 50.71472 | 4.64266 | 37337 ft | 466 kts | 107° |
| 2026-04-26 09:07 | 50.69600 | 4.74049 | 37339 ft | 464 kts | 107° |
| 2026-04-26 09:07 | 50.68671 | 4.78905 | 37121 ft | 460 kts | 107° |
| 2026-04-26 09:07 | 50.67736 | 4.83697 | 36833 ft | 454 kts | 107° |
| 2026-04-26 09:07 | 50.66808 | 4.88390 | 36791 ft | 442 kts | 107° |
| 2026-04-26 09:08 | 50.65907 | 4.92953 | 36763 ft | 435 kts | 107° |
| 2026-04-26 09:08 | 50.64978 | 4.97568 | 36292 ft | 451 kts | 108° |
| 2026-04-26 09:08 | 50.63992 | 5.02348 | 35582 ft | 464 kts | 108° |
| 2026-04-26 09:08 | 50.62977 | 5.07207 | 34789 ft | 469 kts | 108° |
| 2026-04-26 09:09 | 50.61956 | 5.12116 | 33908 ft | 475 kts | 107° |
| 2026-04-26 09:09 | 50.60934 | 5.17072 | 33286 ft | 473 kts | 108° |
| 2026-04-26 09:09 | 50.59925 | 5.21974 | 32735 ft | 470 kts | 108° |
| 2026-04-26 09:09 | 50.58917 | 5.26848 | 32166 ft | 467 kts | 108° |
| 2026-04-26 09:10 | 50.57908 | 5.31695 | 31603 ft | 465 kts | 108° |
| 2026-04-26 09:10 | 50.56900 | 5.36513 | 31008 ft | 463 kts | 108° |
| 2026-04-26 09:10 | 50.55894 | 5.41312 | 30431 ft | 461 kts | 108° |
| 2026-04-26 09:10 | 50.54890 | 5.46098 | 29795 ft | 459 kts | 108° |
| 2026-04-26 09:11 | 50.53891 | 5.50851 | 29168 ft | 456 kts | 108° |
| 2026-04-26 09:11 | 50.52899 | 5.55582 | 28582 ft | 453 kts | 107° |
| 2026-04-26 09:11 | 50.52286 | 5.60407 | 28007 ft | 449 kts | 94° |
| 2026-04-26 09:11 | 50.52339 | 5.65291 | 27415 ft | 446 kts | 82° |
| 2026-04-26 09:12 | 50.53058 | 5.70005 | 26823 ft | 442 kts | 72° |
| 2026-04-26 09:12 | 50.53998 | 5.74601 | 26196 ft | 441 kts | 71° |
| 2026-04-26 09:12 | 50.54970 | 5.79102 | 25586 ft | 439 kts | 70° |
| 2026-04-26 09:12 | 50.55962 | 5.83649 | 24983 ft | 438 kts | 70° |
| 2026-04-26 09:13 | 50.56930 | 5.88194 | 24369 ft | 438 kts | 71° |
| 2026-04-26 09:13 | 50.57876 | 5.92755 | 23734 ft | 437 kts | 71° |
| 2026-04-26 09:13 | 50.58809 | 5.97303 | 23036 ft | 435 kts | 71° |
| 2026-04-26 09:13 | 50.59742 | 6.01827 | 22391 ft | 433 kts | 71° |
| 2026-04-26 09:14 | 50.60670 | 6.06288 | 21763 ft | 423 kts | 71° |
| 2026-04-26 09:14 | 50.61574 | 6.10630 | 21148 ft | 412 kts | 71° |
| 2026-04-26 09:14 | 50.62455 | 6.14878 | 20539 ft | 403 kts | 71° |
| 2026-04-26 09:14 | 50.63247 | 6.19073 | 19961 ft | 398 kts | 78° |
| 2026-04-26 09:15 | 50.63501 | 6.23413 | 19373 ft | 400 kts | 91° |
| 2026-04-26 09:15 | 50.63350 | 6.27792 | 18738 ft | 402 kts | 94° |
| 2026-04-26 09:15 | 50.63137 | 6.32202 | 18046 ft | 403 kts | 94° |
| 2026-04-26 09:15 | 50.62893 | 6.36548 | 17390 ft | 394 kts | 94° |
| 2026-04-26 09:16 | 50.62652 | 6.40792 | 16755 ft | 384 kts | 94° |
| 2026-04-26 09:16 | 50.62430 | 6.44950 | 16124 ft | 377 kts | 94° |
| 2026-04-26 09:16 | 50.62224 | 6.49014 | 15501 ft | 369 kts | 93° |
| 2026-04-26 09:16 | 50.62021 | 6.53018 | 14885 ft | 363 kts | 93° |
| 2026-04-26 09:17 | 50.61816 | 6.56949 | 14265 ft | 357 kts | 94° |
| 2026-04-26 09:17 | 50.61607 | 6.60808 | 13610 ft | 351 kts | 93° |
| 2026-04-26 09:17 | 50.61404 | 6.64548 | 12994 ft | 344 kts | 93° |
| 2026-04-26 09:17 | 50.61303 | 6.68281 | 12403 ft | 340 kts | 82° |
| 2026-04-26 09:18 | 50.62010 | 6.71789 | 11812 ft | 335 kts | 57° |
| 2026-04-26 09:18 | 50.63597 | 6.74373 | 11233 ft | 329 kts | 29° |
| 2026-04-26 09:18 | 50.65734 | 6.75460 | 10714 ft | 320 kts | 2° |
| 2026-04-26 09:18 | 50.67874 | 6.75596 | 10534 ft | 297 kts | 360° |
| 2026-04-26 09:19 | 50.69884 | 6.75638 | 10236 ft | 282 kts | 359° |
| 2026-04-26 09:19 | 50.71808 | 6.75664 | 9840 ft | 272 kts | 359° |
| 2026-04-26 09:19 | 50.73678 | 6.75711 | 9441 ft | 267 kts | 360° |
| 2026-04-26 09:19 | 50.75533 | 6.75779 | 9074 ft | 266 kts | 360° |
| 2026-04-26 09:20 | 50.77377 | 6.75854 | 8724 ft | 264 kts | 0° |
| 2026-04-26 09:20 | 50.79202 | 6.75927 | 8384 ft | 261 kts | 0° |
| 2026-04-26 09:20 | 50.81015 | 6.75996 | 8051 ft | 260 kts | 360° |
| 2026-04-26 09:20 | 50.82793 | 6.76061 | 7719 ft | 258 kts | 360° |
| 2026-04-26 09:21 | 50.84583 | 6.76120 | 7388 ft | 256 kts | 360° |
| 2026-04-26 09:21 | 50.86383 | 6.76175 | 7054 ft | 255 kts | 360° |
| 2026-04-26 09:21 | 50.88132 | 6.76228 | 6728 ft | 254 kts | 360° |
| 2026-04-26 09:21 | 50.89889 | 6.76283 | 6391 ft | 252 kts | 0° |
| 2026-04-26 09:22 | 50.91643 | 6.76339 | 6056 ft | 251 kts | 0° |
| 2026-04-26 09:22 | 50.93357 | 6.76604 | 5795 ft | 242 kts | 14° |
| 2026-04-26 09:22 | 50.94871 | 6.77555 | 5699 ft | 226 kts | 22° |
| 2026-04-26 09:22 | 50.96265 | 6.78577 | 5395 ft | 217 kts | 24° |
| 2026-04-26 09:23 | 50.97620 | 6.79613 | 4993 ft | 215 kts | 28° |
| 2026-04-26 09:23 | 50.98777 | 6.81103 | 4569 ft | 215 kts | 48° |
| 2026-04-26 09:23 | 50.99685 | 6.82929 | 4294 ft | 206 kts | 51° |
| 2026-04-26 09:23 | 51.00542 | 6.84689 | 4019 ft | 196 kts | 51° |
| 2026-04-26 09:24 | 51.01354 | 6.86362 | 3745 ft | 187 kts | 52° |
| 2026-04-26 09:24 | 51.02129 | 6.87954 | 3554 ft | 175 kts | 52° |
| 2026-04-26 09:24 | 51.02645 | 6.89610 | 3505 ft | 167 kts | 78° |
| 2026-04-26 09:24 | 51.02536 | 6.91439 | 3469 ft | 170 kts | 111° |
| 2026-04-26 09:25 | 51.01814 | 6.92913 | 3401 ft | 171 kts | 134° |
| 2026-04-26 09:25 | 51.00938 | 6.94196 | 3301 ft | 170 kts | 136° |
| 2026-04-26 09:25 | 51.00075 | 6.95425 | 3207 ft | 161 kts | 136° |
| 2026-04-26 09:25 | 50.99245 | 6.96606 | 3126 ft | 160 kts | 136° |
| 2026-04-26 09:26 | 50.98424 | 6.97793 | 3032 ft | 160 kts | 135° |
| 2026-04-26 09:26 | 50.97620 | 6.98962 | 2856 ft | 152 kts | 135° |
| 2026-04-26 09:26 | 50.96846 | 7.00090 | 2644 ft | 150 kts | 135° |
| 2026-04-26 09:26 | 50.96095 | 7.01184 | 2445 ft | 148 kts | 135° |
| 2026-04-26 09:27 | 50.95340 | 7.02285 | 2250 ft | 147 kts | 136° |
| 2026-04-26 09:27 | 50.94590 | 7.03380 | 2046 ft | 145 kts | 136° |
| 2026-04-26 09:27 | 50.93846 | 7.04464 | 1846 ft | 145 kts | 136° |
| 2026-04-26 09:27 | 50.93103 | 7.05546 | 1628 ft | 144 kts | 136° |
| 2026-04-26 09:28 | 50.92360 | 7.06630 | 1435 ft | 145 kts | 136° |
| 2026-04-26 09:28 | 50.91611 | 7.07700 | 1218 ft | 146 kts | 137° |
| 2026-04-26 09:28 | 50.90851 | 7.08805 | 1017 ft | 150 kts | 135° |
| 2026-04-26 09:28 | 50.90081 | 7.09934 | 815 ft | 151 kts | 135° |
| 2026-04-26 09:29 | 50.89316 | 7.11063 | 625 ft | 150 kts | 135° |
| 2026-04-26 09:29 | 50.88543 | 7.12181 | 431 ft | 151 kts | 135° |
| 2026-04-26 09:29 | 50.87779 | 7.13290 | 275 ft | 150 kts | 136° |
| 2026-04-26 09:29 | 50.87075 | 7.14302 | 257 ft | 111 kts | 135° |
| 2026-04-26 09:30 | 50.86682 | 7.14871 | 258 ft | 43 kts | 135° |
| 2026-04-26 09:30 | 50.86588 | 7.15024 | 262 ft | 13 kts | 137° |
| 2026-04-26 09:30 | 50.86518 | 7.15123 | 265 ft | 14 kts | 139° |
| 2026-04-26 09:30 | 50.86445 | 7.15220 | 267 ft | 15 kts | 145° |
| 2026-04-26 09:31 | 50.86346 | 7.15294 | 269 ft | 16 kts | 163° |
| 2026-04-26 09:31 | 50.86239 | 7.15332 | 274 ft | 16 kts | 168° |
| 2026-04-26 09:31 | 50.86140 | 7.15359 | 275 ft | 11 kts | 180° |
| 2026-04-26 09:31 | 50.86072 | 7.15309 | 275 ft | 11 kts | 222° |
| 2026-04-26 09:32 | 50.86047 | 7.15202 | 275 ft | 11 kts | 272° |
| 2026-04-26 09:32 | 50.86074 | 7.15098 | 275 ft | 10 kts | 308° |
| 2026-04-26 09:32 | 50.86130 | 7.15015 | 273 ft | 12 kts | 321° |
| 2026-04-26 09:32 | 50.86202 | 7.14915 | 270 ft | 15 kts | 317° |
| 2026-04-26 09:33 | 50.86277 | 7.14804 | 268 ft | 15 kts | 317° |
| 2026-04-26 09:33 | 50.86362 | 7.14680 | 264 ft | 18 kts | 317° |
| 2026-04-26 09:33 | 50.86453 | 7.14547 | 261 ft | 19 kts | 317° |
| 2026-04-26 09:33 | 50.86556 | 7.14400 | 257 ft | 20 kts | 318° |
| 2026-04-26 09:34 | 50.86654 | 7.14255 | 257 ft | 19 kts | 316° |
| 2026-04-26 09:34 | 50.86740 | 7.14143 | 252 ft | 15 kts | 337° |
| 2026-04-26 09:34 | 50.86835 | 7.14052 | 246 ft | 18 kts | 318° |
| 2026-04-26 09:34 | 50.86932 | 7.13911 | 242 ft | 19 kts | 317° |
| 2026-04-26 09:35 | 50.87027 | 7.13772 | 242 ft | 19 kts | 317° |
| 2026-04-26 09:35 | 50.87124 | 7.13632 | 239 ft | 19 kts | 318° |
| 2026-04-26 09:35 | 50.87225 | 7.13487 | 242 ft | 20 kts | 317° |
| 2026-04-26 09:35 | 50.87327 | 7.13336 | 236 ft | 20 kts | 317° |
| 2026-04-26 09:36 | 50.87432 | 7.13184 | 232 ft | 20 kts | 317° |
| 2026-04-26 09:36 | 50.87534 | 7.13036 | 230 ft | 20 kts | 316° |
| 2026-04-26 09:36 | 50.87635 | 7.12890 | 230 ft | 19 kts | 318° |
| 2026-04-26 09:36 | 50.87732 | 7.12748 | 229 ft | 16 kts | 318° |
| 2026-04-26 09:37 | 50.87800 | 7.12654 | 229 ft | 12 kts | 320° |
| 2026-04-26 09:37 | 50.87867 | 7.12612 | 229 ft | 9 kts | 359° |
| 2026-04-26 09:37 | 50.87922 | 7.12601 | 232 ft | 7 kts | 333° |
| 2026-04-26 09:37 | 50.87962 | 7.12552 | 230 ft | 7 kts | 320° |
| 2026-04-26 09:38 | 50.88000 | 7.12500 | 230 ft | 7 kts | 318° |
| 2026-04-26 09:38 | 50.88037 | 7.12444 | 230 ft | 7 kts | 316° |
| 2026-04-26 09:38 | 50.88070 | 7.12383 | 229 ft | 7 kts | 308° |
| 2026-04-26 09:38 | 50.88096 | 7.12314 | 229 ft | 7 kts | 285° |
| 2026-04-26 09:39 | 50.88114 | 7.12237 | 231 ft | 7 kts | 302° |
| 2026-04-26 09:39 | 50.88143 | 7.12172 | 229 ft | 7 kts | 306° |
| 2026-04-26 09:39 | 50.88174 | 7.12106 | 230 ft | 7 kts | 306° |
| 2026-04-26 09:39 | 50.88180 | 7.12040 | 229 ft | 5 kts | 236° |
| 2026-04-26 09:40 | 50.88162 | 7.12013 | 229 ft | 3 kts | 220° |
| 2026-04-26 09:40 | 50.88153 | 7.12001 | 229 ft | 0 kts | 219° |